createdAt,value
2022-10-26T00:01:11.133Z,9.20
2022-10-26T00:03:39.757Z,9.20
2022-10-26T00:06:15.920Z,9.20
2022-10-26T00:11:12.058Z,9.30
2022-10-26T00:13:40.172Z,9.30
2022-10-26T00:16:27.149Z,9.30
2022-10-26T00:31:14.573Z,9.40
2022-10-26T00:36:10.265Z,9.40
2022-10-26T00:48:30.172Z,9.40
2022-10-26T00:51:00.947Z,9.40
2022-10-26T00:55:56.381Z,9.40
2022-10-26T01:00:51.852Z,9.50
2022-10-26T01:05:47.771Z,9.50
2022-10-26T01:08:16.987Z,9.50
2022-10-26T01:13:12.785Z,9.50
2022-10-26T01:16:06.654Z,9.50
2022-10-26T01:18:53.499Z,9.50
2022-10-26T01:21:47.008Z,9.50
2022-10-26T01:24:46.343Z,9.50
2022-10-26T01:27:28.636Z,9.50
2022-10-26T01:30:10.760Z,9.60
2022-10-26T01:32:53.066Z,9.60
2022-10-26T01:35:51.673Z,9.60
2022-10-26T01:38:27.227Z,9.70
2022-10-26T01:41:16.849Z,9.70
2022-10-26T01:44:00.565Z,9.70
2022-10-26T01:46:30.593Z,9.70
2022-10-26T01:49:03.966Z,9.70
2022-10-26T01:51:32.879Z,9.70
2022-10-26T01:56:34.728Z,9.70
2022-10-26T01:59:18.840Z,9.80
2022-10-26T02:01:48.498Z,9.80
2022-10-26T02:04:53.895Z,9.70
2022-10-26T02:12:39.135Z,9.90
2022-10-26T02:15:20.789Z,9.90
2022-10-26T02:18:05.806Z,9.90
2022-10-26T02:20:36.550Z,9.90
2022-10-26T02:23:07.318Z,9.90
2022-10-26T02:25:39.639Z,10.00
2022-10-26T02:28:10.548Z,9.90
2022-10-26T02:30:39.143Z,10.00
2022-10-26T02:33:07.874Z,10.00
2022-10-26T02:35:37.892Z,10.00
2022-10-26T02:38:07.833Z,10.10
2022-10-26T02:40:36.172Z,10.00
2022-10-26T02:43:07.984Z,10.10
2022-10-26T02:45:43.650Z,10.10
2022-10-26T02:50:56.024Z,10.10
2022-10-26T02:53:41.516Z,10.10
2022-10-26T02:56:16.559Z,10.10
2022-10-26T02:58:48.482Z,10.10
2022-10-26T03:50:21.800Z,10.30
2022-10-26T03:52:49.534Z,10.30
2022-10-26T03:57:45.512Z,10.30
2022-10-26T04:00:17.688Z,10.20
2022-10-26T04:02:49.989Z,10.20
2022-10-26T04:37:12.575Z,11.00
2022-10-26T04:56:51.547Z,10.30
2022-10-26T04:59:18.343Z,10.10
2022-10-26T05:23:53.932Z,10.40
2022-10-26T05:28:48.498Z,10.40
2022-10-26T05:41:04.343Z,11.10
2022-10-26T05:43:31.199Z,10.30
2022-10-26T05:58:15.817Z,10.60
2022-10-26T06:01:11.564Z,10.80
2022-10-26T06:04:13.606Z,10.70
2022-10-26T06:06:44.607Z,10.70
2022-10-26T06:09:12.695Z,10.70
2022-10-26T06:14:08.697Z,10.70
2022-10-26T06:16:58.080Z,10.70
2022-10-26T06:19:35.086Z,10.70
2022-10-26T06:22:24.699Z,10.70
2022-10-26T06:27:55.932Z,10.80
2022-10-26T06:30:23.519Z,11.10
2022-10-26T06:33:01.143Z,10.80
2022-10-26T06:35:43.190Z,10.80
2022-10-26T06:38:18.140Z,10.80
2022-10-26T06:40:48.154Z,10.80
2022-10-26T06:43:25.830Z,10.90
2022-10-26T06:46:17.631Z,10.80
2022-10-26T06:49:04.681Z,10.90
2022-10-26T06:51:36.292Z,10.80
2022-10-26T06:54:23.173Z,10.80
2022-10-26T06:59:30.668Z,10.70
2022-10-26T07:26:35.267Z,10.80
2022-10-26T07:56:08.477Z,11.20
2022-10-26T08:01:11.673Z,11.30
2022-10-26T08:16:01.801Z,11.50
2022-10-26T08:21:01.841Z,11.40
2022-10-26T08:36:01.797Z,11.80
2022-10-26T08:38:28.832Z,11.80
2022-10-26T08:40:57.872Z,12.00
2022-10-26T08:43:40.754Z,12.00
2022-10-26T08:46:14.277Z,12.00
2022-10-26T08:48:56.043Z,12.10
2022-10-26T08:51:27.806Z,12.10
2022-10-26T08:54:05.900Z,12.10
2022-10-26T08:56:44.922Z,11.90
2022-10-26T08:59:17.120Z,12.20
2022-10-26T09:04:15.624Z,12.30
2022-10-26T09:07:02.064Z,12.40
2022-10-26T09:09:48.504Z,12.40
2022-10-26T09:12:32.657Z,12.50
2022-10-26T09:15:13.118Z,12.50
2022-10-26T09:17:49.662Z,12.70
2022-10-26T09:20:28.596Z,12.70
2022-10-26T09:23:05.522Z,12.80
2022-10-26T09:25:39.635Z,12.90
2022-10-26T09:28:15.303Z,12.90
2022-10-26T09:30:44.632Z,13.00
2022-10-26T09:33:21.379Z,13.00
2022-10-26T09:35:53.126Z,13.00
2022-10-26T09:38:35.240Z,13.10
2022-10-26T09:41:32.063Z,12.80
2022-10-26T09:44:05.867Z,13.20
2022-10-26T09:46:43.427Z,13.20
2022-10-26T09:49:12.956Z,13.20
2022-10-26T09:51:43.054Z,13.30
2022-10-26T09:54:16.505Z,13.60
2022-10-26T09:56:54.919Z,13.40
2022-10-26T09:59:24.375Z,13.40
2022-10-26T10:04:22.783Z,13.40
2022-10-26T10:07:14.270Z,13.50
2022-10-26T10:12:20.595Z,13.60
2022-10-26T10:14:58.617Z,13.60
2022-10-26T10:17:26.595Z,13.70
2022-10-26T10:22:24.930Z,13.80
2022-10-26T10:24:56.183Z,13.90
2022-10-26T10:29:52.592Z,14.00
2022-10-26T10:32:22.277Z,14.00
2022-10-26T10:34:53.625Z,13.90
2022-10-26T10:37:30.408Z,14.10
2022-10-26T10:40:08.232Z,14.10
2022-10-26T10:42:38.904Z,14.10
2022-10-26T10:45:07.778Z,14.10
2022-10-26T10:47:36.859Z,14.10
2022-10-26T10:50:20.437Z,14.10
2022-10-26T10:57:52.930Z,14.10
2022-10-26T11:00:24.045Z,14.10
2022-10-26T11:05:27.168Z,14.10
2022-10-26T11:08:20.358Z,14.50
2022-10-26T11:11:10.480Z,14.10
2022-10-26T11:13:47.232Z,14.20
2022-10-26T11:16:30.186Z,14.20
2022-10-26T11:19:35.121Z,14.30
2022-10-26T11:22:04.934Z,14.40
2022-10-26T11:24:42.310Z,14.40
2022-10-26T11:27:21.730Z,14.40
2022-10-26T11:32:30.784Z,14.30
2022-10-26T11:42:39.108Z,14.80
2022-10-26T11:45:47.206Z,14.80
2022-10-26T11:48:31.763Z,14.70
2022-10-26T11:51:00.298Z,15.00
2022-10-26T11:53:39.997Z,15.10
2022-10-26T11:56:32.264Z,15.50
2022-10-26T11:59:00.068Z,15.40
2022-10-26T12:01:29.943Z,15.60
2022-10-26T12:04:00.603Z,15.50
2022-10-26T12:06:31.725Z,15.60
2022-10-26T12:09:06.424Z,15.60
2022-10-26T12:14:06.071Z,15.60
2022-10-26T12:16:52.344Z,15.60
2022-10-26T12:19:22.555Z,15.70
2022-10-26T12:21:51.340Z,15.80
2022-10-26T12:24:23.987Z,15.80
2022-10-26T12:26:56.069Z,15.90
2022-10-26T12:29:32.604Z,16.00
2022-10-26T12:34:39.271Z,16.10
2022-10-26T12:37:08.960Z,16.00
2022-10-26T12:39:43.027Z,16.10
2022-10-26T12:42:29.175Z,16.00
2022-10-26T12:44:58.765Z,16.00
2022-10-26T12:47:28.484Z,16.00
2022-10-26T12:50:07.394Z,15.90
2022-10-26T12:52:54.525Z,16.00
2022-10-26T12:58:04.368Z,16.00
2022-10-26T13:03:39.854Z,16.00
2022-10-26T13:06:31.651Z,15.90
2022-10-26T13:11:43.404Z,16.10
2022-10-26T13:14:24.509Z,15.90
2022-10-26T13:19:32.761Z,16.00
2022-10-26T13:22:00.412Z,16.00
2022-10-26T13:24:31.249Z,15.90
2022-10-26T13:27:09.901Z,15.90
2022-10-26T13:30:12.825Z,15.80
2022-10-26T13:32:42.565Z,15.60
2022-10-26T13:35:13.961Z,15.90
2022-10-26T13:37:46.345Z,15.90
2022-10-26T13:40:18.610Z,15.90
2022-10-26T13:42:48.045Z,15.90
2022-10-26T13:45:19.457Z,15.90
2022-10-26T13:47:55.433Z,15.90
2022-10-26T13:50:32.959Z,15.90
2022-10-26T13:53:20.476Z,15.90
2022-10-26T13:58:28.105Z,15.90
2022-10-26T14:01:10.352Z,16.10
2022-10-26T14:03:38.310Z,16.10
2022-10-26T14:06:26.305Z,16.10
2022-10-26T14:08:56.076Z,16.10
2022-10-26T14:11:42.892Z,16.10
2022-10-26T14:14:17.746Z,16.10
2022-10-26T14:16:46.660Z,16.20
2022-10-26T14:19:24.958Z,16.20
2022-10-26T14:21:52.544Z,16.30
2022-10-26T14:24:40.962Z,16.50
2022-10-26T14:27:22.640Z,16.60
2022-10-26T14:30:16.867Z,16.70
2022-10-26T14:35:06.295Z,16.70
2022-10-26T14:37:43.117Z,16.50
2022-10-26T14:40:22.252Z,16.70
2022-10-26T14:42:54.547Z,16.70
2022-10-26T14:45:48.198Z,16.70
2022-10-26T14:48:35.713Z,16.70
2022-10-26T14:51:10.831Z,16.60
2022-10-26T14:53:47.613Z,16.60
2022-10-26T14:56:41.305Z,16.50
2022-10-26T14:59:28.976Z,16.20
2022-10-26T15:02:19.757Z,16.30
2022-10-26T15:05:02.528Z,16.10
2022-10-26T15:07:40.997Z,16.20
2022-10-26T15:10:36.901Z,16.10
2022-10-26T15:13:31.799Z,16.00
2022-10-26T15:16:16.704Z,16.00
2022-10-26T15:18:46.211Z,16.00
2022-10-26T15:21:22.007Z,15.90
2022-10-26T15:33:40.451Z,15.70
2022-10-26T15:36:14.925Z,15.70
2022-10-26T15:41:29.638Z,15.60
2022-10-26T15:43:58.969Z,15.50
2022-10-26T15:46:30.622Z,15.50
2022-10-26T15:49:02.565Z,15.50
2022-10-26T15:54:03.282Z,15.40
2022-10-26T15:56:31.664Z,15.40
2022-10-26T15:58:59.007Z,15.30
2022-10-26T16:01:28.393Z,15.30
2022-10-26T16:08:52.315Z,15.20
2022-10-26T16:16:15.528Z,15.10
2022-10-26T16:21:14.307Z,15.00
2022-10-26T16:23:42.128Z,15.00
2022-10-26T16:26:09.426Z,15.00
2022-10-26T16:31:06.513Z,14.90
2022-10-26T16:33:35.227Z,14.90
2022-10-26T16:36:03.290Z,14.90
2022-10-26T16:38:31.652Z,14.90
2022-10-26T16:41:03.537Z,14.70
2022-10-26T16:43:43.823Z,14.90
2022-10-26T16:46:21.493Z,14.90
2022-10-26T16:48:49.618Z,14.90
2022-10-26T16:51:24.982Z,14.90
2022-10-26T16:53:56.297Z,14.90
2022-10-26T16:56:26.687Z,14.90
2022-10-26T17:03:50.731Z,14.80
2022-10-26T17:11:19.029Z,14.70
2022-10-26T17:16:18.892Z,14.70
2022-10-26T17:21:15.528Z,14.70
2022-10-26T17:26:11.628Z,14.60
2022-10-26T17:31:11.491Z,14.60
2022-10-26T17:33:39.771Z,14.40
2022-10-26T17:36:07.835Z,14.90
2022-10-26T17:38:37.260Z,14.60
2022-10-26T17:41:09.808Z,14.60
2022-10-26T17:43:38.827Z,14.50
2022-10-26T17:46:08.396Z,14.50
2022-10-26T17:51:04.767Z,14.50
2022-10-26T17:56:09.628Z,14.50
2022-10-26T17:58:37.123Z,14.50
2022-10-26T18:01:09.351Z,14.40
2022-10-26T18:03:37.759Z,14.40
2022-10-26T18:06:07.518Z,14.10
2022-10-26T18:08:38.596Z,14.40
2022-10-26T18:11:07.011Z,14.50
2022-10-26T18:13:34.313Z,14.30
2022-10-26T18:16:13.601Z,14.30
2022-10-26T18:18:42.601Z,14.30
2022-10-26T18:21:11.308Z,14.30
2022-10-26T18:26:14.270Z,14.30
2022-10-26T18:28:41.659Z,14.30
2022-10-26T18:31:11.662Z,14.20
2022-10-26T18:36:07.364Z,14.40
2022-10-26T18:41:02.148Z,14.20
2022-10-26T18:46:06.220Z,14.10
2022-10-26T18:51:05.818Z,14.10
2022-10-26T18:53:34.420Z,14.10
2022-10-26T18:56:07.490Z,14.10
2022-10-26T18:58:36.383Z,14.10
2022-10-26T19:01:12.518Z,13.90
2022-10-26T19:06:14.765Z,14.10
2022-10-26T19:11:11.987Z,13.90
2022-10-26T19:16:17.341Z,13.80
2022-10-26T19:18:56.066Z,13.80
2022-10-26T19:23:56.207Z,13.70
2022-10-26T19:26:25.394Z,13.70
2022-10-26T19:29:04.147Z,13.60
2022-10-26T19:34:03.459Z,13.60
2022-10-26T19:41:26.891Z,13.50
2022-10-26T19:43:55.087Z,13.50
2022-10-26T19:46:24.696Z,13.40
2022-10-26T19:48:54.204Z,13.60
2022-10-26T19:51:21.881Z,13.40
2022-10-26T19:58:44.617Z,13.30
2022-10-26T20:01:13.491Z,13.30
2022-10-26T20:06:12.902Z,13.30
2022-10-26T20:08:46.089Z,13.40
2022-10-26T20:11:15.742Z,13.20
2022-10-26T20:13:44.594Z,13.20
2022-10-26T20:16:12.466Z,13.20
2022-10-26T20:28:45.797Z,12.80
2022-10-26T20:31:13.416Z,12.90
2022-10-26T20:43:39.488Z,12.60
2022-10-26T20:46:07.713Z,12.50
2022-10-26T20:51:16.211Z,12.50
2022-10-26T20:53:52.257Z,12.40
2022-10-26T20:56:26.203Z,12.40
2022-10-26T20:58:57.749Z,12.30
2022-10-26T21:01:30.645Z,12.30
2022-10-26T21:03:59.805Z,12.20
2022-10-26T21:08:55.587Z,12.10
2022-10-26T21:11:24.580Z,12.10
2022-10-26T21:13:53.592Z,12.00
2022-10-26T21:28:45.818Z,11.80
2022-10-26T21:31:14.902Z,11.80
2022-10-26T21:36:12.324Z,11.80
2022-10-26T21:41:09.516Z,11.90
2022-10-26T21:43:37.811Z,11.90
2022-10-26T21:46:05.475Z,11.90
2022-10-26T21:48:34.222Z,11.90
2022-10-26T21:51:02.359Z,11.90
2022-10-26T21:56:22.660Z,11.80
2022-10-26T22:01:19.017Z,11.80
2022-10-26T22:06:15.679Z,11.70
2022-10-26T22:11:15.208Z,11.70
2022-10-26T22:16:15.768Z,11.60
2022-10-26T22:18:44.983Z,11.50
2022-10-26T22:21:13.653Z,11.50
2022-10-26T22:23:42.236Z,11.50
2022-10-26T22:26:12.144Z,11.80
2022-10-26T22:28:42.675Z,11.40
2022-10-26T22:31:15.598Z,11.30
2022-10-26T22:36:18.307Z,11.40
2022-10-26T22:46:10.001Z,11.30
2022-10-26T22:48:37.992Z,11.30
2022-10-26T22:51:33.093Z,11.30
2022-10-26T22:54:01.797Z,11.30
2022-10-26T22:56:30.044Z,11.20
2022-10-26T23:01:27.568Z,10.90
2022-10-26T23:06:27.519Z,10.90
2022-10-26T23:11:23.157Z,11.00
2022-10-26T23:14:00.981Z,10.70
2022-10-26T23:16:28.811Z,10.60
2022-10-26T23:31:25.658Z,10.30
2022-10-26T23:33:54.323Z,10.20
2022-10-26T23:38:48.555Z,10.20
2022-10-26T23:46:10.113Z,10.30
2022-10-26T23:58:25.999Z,10.70
